sensor_id;sensor_type;location;lat;lon;timestamp;P1;durP1;ratioP1;P2;durP2;ratioP2
40588;SDS011;26297;49.450;6.640;2023-03-29T00:00:18;1.58;;;0.90;;
40588;SDS011;26297;49.450;6.640;2023-03-29T00:03:25;1.45;;;0.60;;
40588;SDS011;26297;49.450;6.640;2023-03-29T00:06:29;0.90;;;0.80;;
40588;SDS011;26297;49.450;6.640;2023-03-29T00:09:38;2.03;;;0.77;;
40588;SDS011;26297;49.450;6.640;2023-03-29T00:12:51;0.47;;;0.47;;
40588;SDS011;26297;49.450;6.640;2023-03-29T00:15:55;2.30;;;0.65;;
40588;SDS011;26297;49.450;6.640;2023-03-29T00:19:02;1.30;;;0.60;;
40588;SDS011;26297;49.450;6.640;2023-03-29T00:22:06;1.23;;;0.70;;
40588;SDS011;26297;49.450;6.640;2023-03-29T00:25:10;1.60;;;0.70;;
40588;SDS011;26297;49.450;6.640;2023-03-29T00:28:14;0.80;;;0.80;;
40588;SDS011;26297;49.450;6.640;2023-03-29T00:31:18;1.65;;;0.65;;
40588;SDS011;26297;49.450;6.640;2023-03-29T00:34:22;0.93;;;0.47;;
40588;SDS011;26297;49.450;6.640;2023-03-29T00:37:34;1.67;;;0.80;;
40588;SDS011;26297;49.450;6.640;2023-03-29T00:41:04;1.75;;;0.90;;
40588;SDS011;26297;49.450;6.640;2023-03-29T00:48:16;2.40;;;0.80;;
40588;SDS011;26297;49.450;6.640;2023-03-29T00:51:44;0.90;;;0.80;;
40588;SDS011;26297;49.450;6.640;2023-03-29T00:55:06;1.52;;;0.85;;
40588;SDS011;26297;49.450;6.640;2023-03-29T00:58:27;4.68;;;0.70;;
40588;SDS011;26297;49.450;6.640;2023-03-29T01:02:04;0.60;;;0.60;;
40588;SDS011;26297;49.450;6.640;2023-03-29T01:05:13;0.47;;;0.40;;
40588;SDS011;26297;49.450;6.640;2023-03-29T01:08:22;2.20;;;0.60;;
40588;SDS011;26297;49.450;6.640;2023-03-29T01:11:37;0.50;;;0.50;;
40588;SDS011;26297;49.450;6.640;2023-03-29T01:14:52;0.63;;;0.40;;
40588;SDS011;26297;49.450;6.640;2023-03-29T01:17:58;1.20;;;0.70;;
40588;SDS011;26297;49.450;6.640;2023-03-29T01:21:24;0.80;;;0.55;;
40588;SDS011;26297;49.450;6.640;2023-03-29T01:24:40;1.25;;;0.50;;
40588;SDS011;26297;49.450;6.640;2023-03-29T01:28:00;0.60;;;0.52;;
40588;SDS011;26297;49.450;6.640;2023-03-29T01:31:09;1.15;;;0.70;;
40588;SDS011;26297;49.450;6.640;2023-03-29T01:34:40;0.80;;;0.50;;
40588;SDS011;26297;49.450;6.640;2023-03-29T01:38:01;1.05;;;0.60;;
40588;SDS011;26297;49.450;6.640;2023-03-29T01:41:11;0.80;;;0.70;;
40588;SDS011;26297;49.450;6.640;2023-03-29T01:44:19;0.98;;;0.57;;
40588;SDS011;26297;49.450;6.640;2023-03-29T01:51:29;0.70;;;0.70;;
40588;SDS011;26297;49.450;6.640;2023-03-29T01:55:01;0.85;;;0.55;;
40588;SDS011;26297;49.450;6.640;2023-03-29T01:58:16;1.92;;;0.77;;
40588;SDS011;26297;49.450;6.640;2023-03-29T02:01:24;2.38;;;0.60;;
40588;SDS011;26297;49.450;6.640;2023-03-29T02:04:37;1.42;;;0.80;;
40588;SDS011;26297;49.450;6.640;2023-03-29T02:07:47;1.92;;;0.60;;
40588;SDS011;26297;49.450;6.640;2023-03-29T02:10:54;2.92;;;0.85;;
40588;SDS011;26297;49.450;6.640;2023-03-29T02:13:57;0.52;;;0.52;;
40588;SDS011;26297;49.450;6.640;2023-03-29T02:22:04;3.38;;;0.90;;
40588;SDS011;26297;49.450;6.640;2023-03-29T02:25:11;1.23;;;0.63;;
40588;SDS011;26297;49.450;6.640;2023-03-29T02:28:14;1.73;;;1.00;;
40588;SDS011;26297;49.450;6.640;2023-03-29T02:31:25;1.75;;;0.90;;
40588;SDS011;26297;49.450;6.640;2023-03-29T02:34:52;1.90;;;0.80;;
40588;SDS011;26297;49.450;6.640;2023-03-29T02:38:01;0.93;;;0.88;;
40588;SDS011;26297;49.450;6.640;2023-03-29T02:41:07;1.02;;;0.88;;
40588;SDS011;26297;49.450;6.640;2023-03-29T02:44:14;1.13;;;1.00;;
40588;SDS011;26297;49.450;6.640;2023-03-29T02:47:34;1.77;;;1.10;;
40588;SDS011;26297;49.450;6.640;2023-03-29T02:50:52;2.33;;;1.50;;
40588;SDS011;26297;49.450;6.640;2023-03-29T02:54:08;1.42;;;0.85;;
40588;SDS011;26297;49.450;6.640;2023-03-29T02:57:17;1.15;;;0.80;;
40588;SDS011;26297;49.450;6.640;2023-03-29T03:00:28;1.42;;;0.98;;
40588;SDS011;26297;49.450;6.640;2023-03-29T03:03:32;1.85;;;0.93;;
40588;SDS011;26297;49.450;6.640;2023-03-29T03:06:36;0.85;;;0.77;;
40588;SDS011;26297;49.450;6.640;2023-03-29T03:09:40;1.98;;;1.10;;
40588;SDS011;26297;49.450;6.640;2023-03-29T03:12:52;0.98;;;0.90;;
40588;SDS011;26297;49.450;6.640;2023-03-29T03:15:56;1.15;;;0.90;;
40588;SDS011;26297;49.450;6.640;2023-03-29T03:18:59;1.73;;;0.90;;
40588;SDS011;26297;49.450;6.640;2023-03-29T03:22:06;2.83;;;0.98;;
40588;SDS011;26297;49.450;6.640;2023-03-29T03:25:16;1.25;;;0.60;;
40588;SDS011;26297;49.450;6.640;2023-03-29T03:28:22;1.10;;;0.98;;
40588;SDS011;26297;49.450;6.640;2023-03-29T03:31:26;1.65;;;1.10;;
40588;SDS011;26297;49.450;6.640;2023-03-29T03:34:31;1.67;;;0.88;;
40588;SDS011;26297;49.450;6.640;2023-03-29T03:37:38;1.05;;;0.98;;
40588;SDS011;26297;49.450;6.640;2023-03-29T03:40:42;1.98;;;1.17;;
40588;SDS011;26297;49.450;6.640;2023-03-29T03:43:46;1.10;;;1.00;;
40588;SDS011;26297;49.450;6.640;2023-03-29T03:46:50;2.60;;;0.93;;
40588;SDS011;26297;49.450;6.640;2023-03-29T03:49:53;1.17;;;1.05;;
40588;SDS011;26297;49.450;6.640;2023-03-29T03:53:00;1.10;;;1.00;;
40588;SDS011;26297;49.450;6.640;2023-03-29T03:56:06;1.15;;;1.08;;
40588;SDS011;26297;49.450;6.640;2023-03-29T03:59:13;1.20;;;1.13;;
40588;SDS011;26297;49.450;6.640;2023-03-29T04:02:17;0.93;;;0.88;;
40588;SDS011;26297;49.450;6.640;2023-03-29T04:05:21;5.03;;;1.20;;
40588;SDS011;26297;49.450;6.640;2023-03-29T04:08:42;1.77;;;1.08;;
40588;SDS011;26297;49.450;6.640;2023-03-29T04:11:46;3.05;;;1.77;;
40588;SDS011;26297;49.450;6.640;2023-03-29T04:15:00;1.55;;;1.25;;
40588;SDS011;26297;49.450;6.640;2023-03-29T04:18:11;3.33;;;1.33;;
40588;SDS011;26297;49.450;6.640;2023-03-29T04:21:15;3.00;;;2.00;;
40588;SDS011;26297;49.450;6.640;2023-03-29T04:24:23;2.90;;;1.95;;
40588;SDS011;26297;49.450;6.640;2023-03-29T04:27:26;2.10;;;1.40;;
40588;SDS011;26297;49.450;6.640;2023-03-29T04:30:30;2.38;;;1.52;;
40588;SDS011;26297;49.450;6.640;2023-03-29T04:33:34;3.67;;;1.60;;
40588;SDS011;26297;49.450;6.640;2023-03-29T04:36:40;1.80;;;1.20;;
40588;SDS011;26297;49.450;6.640;2023-03-29T04:39:47;3.50;;;1.77;;
40588;SDS011;26297;49.450;6.640;2023-03-29T04:42:52;1.67;;;1.40;;
40588;SDS011;26297;49.450;6.640;2023-03-29T04:45:56;2.40;;;1.27;;
40588;SDS011;26297;49.450;6.640;2023-03-29T04:49:00;2.63;;;1.80;;
40588;SDS011;26297;49.450;6.640;2023-03-29T04:52:03;6.28;;;2.60;;
40588;SDS011;26297;49.450;6.640;2023-03-29T04:55:07;2.17;;;1.55;;
40588;SDS011;26297;49.450;6.640;2023-03-29T04:58:14;1.98;;;1.42;;
40588;SDS011;26297;49.450;6.640;2023-03-29T05:01:18;3.85;;;1.65;;
40588;SDS011;26297;49.450;6.640;2023-03-29T05:08:08;2.07;;;1.80;;
40588;SDS011;26297;49.450;6.640;2023-03-29T05:11:12;2.08;;;1.10;;
40588;SDS011;26297;49.450;6.640;2023-03-29T05:14:23;2.50;;;1.42;;
40588;SDS011;26297;49.450;6.640;2023-03-29T05:17:29;1.45;;;1.35;;
40588;SDS011;26297;49.450;6.640;2023-03-29T05:20:37;2.90;;;1.70;;
40588;SDS011;26297;49.450;6.640;2023-03-29T05:27:16;1.58;;;1.48;;
40588;SDS011;26297;49.450;6.640;2023-03-29T05:30:26;1.48;;;1.38;;
40588;SDS011;26297;49.450;6.640;2023-03-29T05:33:39;2.40;;;1.70;;
40588;SDS011;26297;49.450;6.640;2023-03-29T05:37:09;1.88;;;1.50;;
40588;SDS011;26297;49.450;6.640;2023-03-29T05:44:02;3.42;;;1.77;;
40588;SDS011;26297;49.450;6.640;2023-03-29T06:06:54;3.10;;;2.47;;
40588;SDS011;26297;49.450;6.640;2023-03-29T06:09:58;2.88;;;1.92;;
40588;SDS011;26297;49.450;6.640;2023-03-29T06:13:03;2.83;;;2.10;;
40588;SDS011;26297;49.450;6.640;2023-03-29T06:21:54;4.57;;;2.20;;
40588;SDS011;26297;49.450;6.640;2023-03-29T06:25:08;2.38;;;1.77;;
40588;SDS011;26297;49.450;6.640;2023-03-29T06:31:22;1.95;;;1.30;;
40588;SDS011;26297;49.450;6.640;2023-03-29T06:34:50;3.22;;;1.80;;
40588;SDS011;26297;49.450;6.640;2023-03-29T06:38:01;3.45;;;2.00;;
40588;SDS011;26297;49.450;6.640;2023-03-29T06:44:07;4.05;;;2.08;;
40588;SDS011;26297;49.450;6.640;2023-03-29T06:47:19;2.90;;;1.75;;
40588;SDS011;26297;49.450;6.640;2023-03-29T06:50:46;2.15;;;1.50;;
40588;SDS011;26297;49.450;6.640;2023-03-29T06:53:50;2.90;;;2.00;;
40588;SDS011;26297;49.450;6.640;2023-03-29T06:57:08;2.55;;;1.58;;
40588;SDS011;26297;49.450;6.640;2023-03-29T07:00:27;2.22;;;1.55;;
40588;SDS011;26297;49.450;6.640;2023-03-29T07:04:14;3.85;;;2.58;;
40588;SDS011;26297;49.450;6.640;2023-03-29T07:07:32;3.38;;;2.53;;
40588;SDS011;26297;49.450;6.640;2023-03-29T07:44:50;2.60;;;1.93;;
40588;SDS011;26297;49.450;6.640;2023-03-29T07:52:21;3.92;;;2.08;;
40588;SDS011;26297;49.450;6.640;2023-03-29T07:55:50;4.00;;;2.40;;
40588;SDS011;26297;49.450;6.640;2023-03-29T07:59:37;3.17;;;1.92;;
40588;SDS011;26297;49.450;6.640;2023-03-29T08:11:15;5.43;;;2.80;;
40588;SDS011;26297;49.450;6.640;2023-03-29T08:19:49;5.70;;;3.25;;
40588;SDS011;26297;49.450;6.640;2023-03-29T08:22:58;6.95;;;3.83;;
40588;SDS011;26297;49.450;6.640;2023-03-29T08:26:06;6.55;;;3.17;;
40588;SDS011;26297;49.450;6.640;2023-03-29T08:29:20;5.78;;;2.80;;
40588;SDS011;26297;49.450;6.640;2023-03-29T08:51:48;5.18;;;2.53;;
40588;SDS011;26297;49.450;6.640;2023-03-29T08:57:30;3.15;;;2.20;;
40588;SDS011;26297;49.450;6.640;2023-03-29T09:04:37;2.97;;;2.33;;
40588;SDS011;26297;49.450;6.640;2023-03-29T09:08:09;3.92;;;3.00;;
40588;SDS011;26297;49.450;6.640;2023-03-29T09:17:52;3.92;;;2.72;;
40588;SDS011;26297;49.450;6.640;2023-03-29T09:21:49;4.43;;;2.67;;
40588;SDS011;26297;49.450;6.640;2023-03-29T09:31:56;4.05;;;2.80;;
40588;SDS011;26297;49.450;6.640;2023-03-29T09:35:20;4.93;;;2.53;;
40588;SDS011;26297;49.450;6.640;2023-03-29T09:38:48;4.28;;;2.78;;
40588;SDS011;26297;49.450;6.640;2023-03-29T09:42:01;4.50;;;2.80;;
40588;SDS011;26297;49.450;6.640;2023-03-29T09:45:11;5.82;;;2.47;;
40588;SDS011;26297;49.450;6.640;2023-03-29T09:48:17;4.93;;;3.10;;
40588;SDS011;26297;49.450;6.640;2023-03-29T09:51:23;3.47;;;2.53;;
40588;SDS011;26297;49.450;6.640;2023-03-29T09:54:32;5.50;;;2.42;;
40588;SDS011;26297;49.450;6.640;2023-03-29T09:57:36;4.07;;;2.50;;
40588;SDS011;26297;49.450;6.640;2023-03-29T10:00:41;4.93;;;2.58;;
40588;SDS011;26297;49.450;6.640;2023-03-29T10:07:40;3.00;;;2.20;;
40588;SDS011;26297;49.450;6.640;2023-03-29T10:14:41;4.63;;;2.30;;
40588;SDS011;26297;49.450;6.640;2023-03-29T10:18:18;5.95;;;3.15;;
40588;SDS011;26297;49.450;6.640;2023-03-29T10:21:27;3.75;;;2.17;;
40588;SDS011;26297;49.450;6.640;2023-03-29T10:25:02;3.15;;;2.60;;
40588;SDS011;26297;49.450;6.640;2023-03-29T10:28:18;4.93;;;2.53;;
40588;SDS011;26297;49.450;6.640;2023-03-29T10:31:44;4.07;;;2.35;;
40588;SDS011;26297;49.450;6.640;2023-03-29T10:35:24;4.13;;;2.10;;
40588;SDS011;26297;49.450;6.640;2023-03-29T10:38:46;3.53;;;1.70;;
40588;SDS011;26297;49.450;6.640;2023-03-29T10:44:58;4.07;;;1.52;;
40588;SDS011;26297;49.450;6.640;2023-03-29T10:48:10;3.03;;;1.35;;
40588;SDS011;26297;49.450;6.640;2023-03-29T10:51:17;3.17;;;1.50;;
40588;SDS011;26297;49.450;6.640;2023-03-29T10:54:24;3.67;;;1.40;;
40588;SDS011;26297;49.450;6.640;2023-03-29T10:58:17;3.25;;;1.88;;
40588;SDS011;26297;49.450;6.640;2023-03-29T11:11:55;3.17;;;1.58;;
40588;SDS011;26297;49.450;6.640;2023-03-29T11:48:15;1.42;;;0.90;;
40588;SDS011;26297;49.450;6.640;2023-03-29T11:51:52;4.90;;;0.90;;
40588;SDS011;26297;49.450;6.640;2023-03-29T11:55:22;2.63;;;0.95;;
40588;SDS011;26297;49.450;6.640;2023-03-29T11:58:43;1.77;;;1.02;;
40588;SDS011;26297;49.450;6.640;2023-03-29T12:44:35;2.30;;;1.13;;
40588;SDS011;26297;49.450;6.640;2023-03-29T13:09:27;2.53;;;1.45;;
40588;SDS011;26297;49.450;6.640;2023-03-29T13:26:00;2.05;;;1.40;;
40588;SDS011;26297;49.450;6.640;2023-03-29T14:35:33;2.13;;;1.20;;
40588;SDS011;26297;49.450;6.640;2023-03-29T14:38:44;1.75;;;1.15;;
40588;SDS011;26297;49.450;6.640;2023-03-29T14:42:02;0.75;;;0.73;;
40588;SDS011;26297;49.450;6.640;2023-03-29T14:45:16;1.45;;;1.17;;
40588;SDS011;26297;49.450;6.640;2023-03-29T14:48:37;2.55;;;0.80;;
40588;SDS011;26297;49.450;6.640;2023-03-29T15:00:44;3.37;;;1.13;;
40588;SDS011;26297;49.450;6.640;2023-03-29T15:03:56;1.33;;;0.90;;
40588;SDS011;26297;49.450;6.640;2023-03-29T15:07:06;1.08;;;0.70;;
40588;SDS011;26297;49.450;6.640;2023-03-29T15:10:16;1.83;;;1.00;;
40588;SDS011;26297;49.450;6.640;2023-03-29T15:13:21;1.38;;;0.70;;
40588;SDS011;26297;49.450;6.640;2023-03-29T15:16:27;0.82;;;0.80;;
40588;SDS011;26297;49.450;6.640;2023-03-29T15:19:34;2.45;;;0.85;;
40588;SDS011;26297;49.450;6.640;2023-03-29T15:23:00;3.80;;;1.13;;
40588;SDS011;26297;49.450;6.640;2023-03-29T15:26:30;1.05;;;0.75;;
40588;SDS011;26297;49.450;6.640;2023-03-29T15:29:39;1.98;;;0.88;;
40588;SDS011;26297;49.450;6.640;2023-03-29T15:32:44;0.97;;;0.70;;
40588;SDS011;26297;49.450;6.640;2023-03-29T15:35:49;2.42;;;0.93;;
40588;SDS011;26297;49.450;6.640;2023-03-29T15:38:56;1.25;;;0.80;;
40588;SDS011;26297;49.450;6.640;2023-03-29T15:42:01;0.47;;;0.47;;
40588;SDS011;26297;49.450;6.640;2023-03-29T15:45:11;1.75;;;0.60;;
40588;SDS011;26297;49.450;6.640;2023-03-29T15:48:18;1.42;;;0.45;;
40588;SDS011;26297;49.450;6.640;2023-03-29T15:51:30;1.17;;;0.80;;
40588;SDS011;26297;49.450;6.640;2023-03-29T15:54:33;2.90;;;0.95;;
40588;SDS011;26297;49.450;6.640;2023-03-29T15:57:41;3.17;;;1.30;;
40588;SDS011;26297;49.450;6.640;2023-03-29T16:00:51;1.63;;;0.90;;
40588;SDS011;26297;49.450;6.640;2023-03-29T16:04:25;0.80;;;0.70;;
40588;SDS011;26297;49.450;6.640;2023-03-29T16:07:28;1.52;;;0.80;;
40588;SDS011;26297;49.450;6.640;2023-03-29T16:10:32;3.53;;;0.80;;
40588;SDS011;26297;49.450;6.640;2023-03-29T16:13:36;3.42;;;0.80;;
40588;SDS011;26297;49.450;6.640;2023-03-29T16:16:42;2.00;;;0.90;;
40588;SDS011;26297;49.450;6.640;2023-03-29T16:19:46;2.00;;;0.77;;
40588;SDS011;26297;49.450;6.640;2023-03-29T16:22:55;1.27;;;0.80;;
40588;SDS011;26297;49.450;6.640;2023-03-29T16:26:02;3.67;;;0.50;;
40588;SDS011;26297;49.450;6.640;2023-03-29T16:29:09;0.80;;;0.77;;
40588;SDS011;26297;49.450;6.640;2023-03-29T16:32:13;3.85;;;0.70;;
40588;SDS011;26297;49.450;6.640;2023-03-29T16:35:19;2.17;;;0.68;;
40588;SDS011;26297;49.450;6.640;2023-03-29T16:38:36;1.13;;;0.63;;
40588;SDS011;26297;49.450;6.640;2023-03-29T16:41:40;1.83;;;0.70;;
40588;SDS011;26297;49.450;6.640;2023-03-29T16:44:46;4.78;;;1.00;;
40588;SDS011;26297;49.450;6.640;2023-03-29T16:53:39;3.53;;;0.90;;
40588;SDS011;26297;49.450;6.640;2023-03-29T16:56:45;4.75;;;0.82;;
40588;SDS011;26297;49.450;6.640;2023-03-29T16:59:51;2.10;;;0.50;;
40588;SDS011;26297;49.450;6.640;2023-03-29T17:02:59;1.42;;;0.68;;
40588;SDS011;26297;49.450;6.640;2023-03-29T17:06:06;1.40;;;0.77;;
40588;SDS011;26297;49.450;6.640;2023-03-29T17:09:13;1.23;;;0.80;;
40588;SDS011;26297;49.450;6.640;2023-03-29T17:12:24;0.90;;;0.77;;
40588;SDS011;26297;49.450;6.640;2023-03-29T17:15:30;1.05;;;0.63;;
40588;SDS011;26297;49.450;6.640;2023-03-29T17:18:39;4.60;;;0.75;;
40588;SDS011;26297;49.450;6.640;2023-03-29T17:21:50;4.25;;;1.08;;
40588;SDS011;26297;49.450;6.640;2023-03-29T17:27:49;0.65;;;0.55;;
40588;SDS011;26297;49.450;6.640;2023-03-29T17:30:53;0.68;;;0.60;;
40588;SDS011;26297;49.450;6.640;2023-03-29T17:33:57;1.23;;;0.68;;
40588;SDS011;26297;49.450;6.640;2023-03-29T17:37:02;1.73;;;0.65;;
40588;SDS011;26297;49.450;6.640;2023-03-29T17:43:11;1.30;;;0.73;;
40588;SDS011;26297;49.450;6.640;2023-03-29T17:46:19;2.92;;;0.68;;
40588;SDS011;26297;49.450;6.640;2023-03-29T17:49:30;0.90;;;0.50;;
40588;SDS011;26297;49.450;6.640;2023-03-29T17:52:36;3.03;;;0.85;;
40588;SDS011;26297;49.450;6.640;2023-03-29T18:19:18;1.02;;;0.80;;
40588;SDS011;26297;49.450;6.640;2023-03-29T18:37:33;3.77;;;1.00;;
40588;SDS011;26297;49.450;6.640;2023-03-29T18:40:53;2.30;;;0.90;;
40588;SDS011;26297;49.450;6.640;2023-03-29T19:04:06;3.60;;;0.80;;
40588;SDS011;26297;49.450;6.640;2023-03-29T19:12:57;2.67;;;0.80;;
40588;SDS011;26297;49.450;6.640;2023-03-29T19:16:10;1.45;;;0.85;;
40588;SDS011;26297;49.450;6.640;2023-03-29T19:19:13;2.30;;;0.68;;
40588;SDS011;26297;49.450;6.640;2023-03-29T19:25:25;2.13;;;0.80;;
40588;SDS011;26297;49.450;6.640;2023-03-29T19:28:36;5.80;;;0.85;;
40588;SDS011;26297;49.450;6.640;2023-03-29T19:31:47;2.50;;;1.00;;
40588;SDS011;26297;49.450;6.640;2023-03-29T19:38:10;1.83;;;0.90;;
40588;SDS011;26297;49.450;6.640;2023-03-29T19:41:33;2.15;;;1.02;;
40588;SDS011;26297;49.450;6.640;2023-03-29T19:44:50;3.10;;;0.88;;
40588;SDS011;26297;49.450;6.640;2023-03-29T19:47:55;1.00;;;0.68;;
40588;SDS011;26297;49.450;6.640;2023-03-29T19:51:03;3.17;;;0.90;;
40588;SDS011;26297;49.450;6.640;2023-03-29T19:54:08;1.35;;;1.00;;
40588;SDS011;26297;49.450;6.640;2023-03-29T19:57:16;3.13;;;1.23;;
40588;SDS011;26297;49.450;6.640;2023-03-29T20:00:26;2.33;;;1.33;;
40588;SDS011;26297;49.450;6.640;2023-03-29T20:03:29;3.33;;;1.50;;
40588;SDS011;26297;49.450;6.640;2023-03-29T20:06:35;3.75;;;1.40;;
40588;SDS011;26297;49.450;6.640;2023-03-29T20:09:40;1.45;;;0.80;;
40588;SDS011;26297;49.450;6.640;2023-03-29T20:15:32;1.70;;;1.13;;
40588;SDS011;26297;49.450;6.640;2023-03-29T20:18:36;3.03;;;1.10;;
40588;SDS011;26297;49.450;6.640;2023-03-29T20:21:44;4.45;;;1.10;;
40588;SDS011;26297;49.450;6.640;2023-03-29T20:24:47;1.73;;;0.93;;
40588;SDS011;26297;49.450;6.640;2023-03-29T20:27:51;3.10;;;1.08;;
40588;SDS011;26297;49.450;6.640;2023-03-29T20:30:54;2.03;;;1.30;;
40588;SDS011;26297;49.450;6.640;2023-03-29T20:33:57;4.00;;;1.85;;
40588;SDS011;26297;49.450;6.640;2023-03-29T20:37:01;4.13;;;1.70;;
40588;SDS011;26297;49.450;6.640;2023-03-29T20:40:05;2.10;;;1.38;;
40588;SDS011;26297;49.450;6.640;2023-03-29T20:43:09;4.38;;;1.60;;
40588;SDS011;26297;49.450;6.640;2023-03-29T20:46:14;4.97;;;1.25;;
40588;SDS011;26297;49.450;6.640;2023-03-29T20:49:24;2.33;;;0.90;;
40588;SDS011;26297;49.450;6.640;2023-03-29T20:52:27;4.45;;;0.85;;
40588;SDS011;26297;49.450;6.640;2023-03-29T20:55:31;2.42;;;1.42;;
40588;SDS011;26297;49.450;6.640;2023-03-29T20:58:36;1.75;;;0.73;;
40588;SDS011;26297;49.450;6.640;2023-03-29T21:01:43;5.82;;;1.30;;
40588;SDS011;26297;49.450;6.640;2023-03-29T21:04:50;1.85;;;0.80;;
40588;SDS011;26297;49.450;6.640;2023-03-29T21:07:54;4.90;;;1.20;;
40588;SDS011;26297;49.450;6.640;2023-03-29T21:10:59;1.75;;;0.98;;
40588;SDS011;26297;49.450;6.640;2023-03-29T21:14:02;5.20;;;1.17;;
40588;SDS011;26297;49.450;6.640;2023-03-29T21:17:06;1.92;;;0.98;;
40588;SDS011;26297;49.450;6.640;2023-03-29T21:20:10;2.42;;;0.80;;
40588;SDS011;26297;49.450;6.640;2023-03-29T21:23:14;4.85;;;1.83;;
40588;SDS011;26297;49.450;6.640;2023-03-29T21:26:18;3.40;;;1.25;;
40588;SDS011;26297;49.450;6.640;2023-03-29T21:29:21;4.25;;;1.10;;
40588;SDS011;26297;49.450;6.640;2023-03-29T21:32:24;3.40;;;1.20;;
40588;SDS011;26297;49.450;6.640;2023-03-29T21:35:28;5.38;;;1.38;;
40588;SDS011;26297;49.450;6.640;2023-03-29T21:38:36;3.60;;;1.10;;
40588;SDS011;26297;49.450;6.640;2023-03-29T21:41:39;1.42;;;0.88;;
40588;SDS011;26297;49.450;6.640;2023-03-29T21:44:43;3.40;;;0.88;;
40588;SDS011;26297;49.450;6.640;2023-03-29T21:47:47;2.95;;;1.02;;
40588;SDS011;26297;49.450;6.640;2023-03-29T21:50:50;1.73;;;1.30;;
40588;SDS011;26297;49.450;6.640;2023-03-29T21:53:54;5.53;;;2.00;;
40588;SDS011;26297;49.450;6.640;2023-03-29T21:56:57;5.90;;;1.25;;
40588;SDS011;26297;49.450;6.640;2023-03-29T22:00:01;5.78;;;1.90;;
40588;SDS011;26297;49.450;6.640;2023-03-29T22:03:04;1.33;;;0.93;;
40588;SDS011;26297;49.450;6.640;2023-03-29T22:06:11;3.95;;;1.17;;
40588;SDS011;26297;49.450;6.640;2023-03-29T22:09:15;4.20;;;1.23;;
40588;SDS011;26297;49.450;6.640;2023-03-29T22:12:19;4.03;;;1.17;;
40588;SDS011;26297;49.450;6.640;2023-03-29T22:15:25;2.90;;;1.00;;
40588;SDS011;26297;49.450;6.640;2023-03-29T22:18:32;2.28;;;1.10;;
40588;SDS011;26297;49.450;6.640;2023-03-29T22:21:44;3.35;;;0.90;;
40588;SDS011;26297;49.450;6.640;2023-03-29T22:24:51;1.80;;;1.10;;
40588;SDS011;26297;49.450;6.640;2023-03-29T22:27:56;2.70;;;0.80;;
40588;SDS011;26297;49.450;6.640;2023-03-29T22:31:02;2.10;;;1.45;;
40588;SDS011;26297;49.450;6.640;2023-03-29T22:34:07;2.85;;;1.27;;
40588;SDS011;26297;49.450;6.640;2023-03-29T22:37:11;5.25;;;1.23;;
40588;SDS011;26297;49.450;6.640;2023-03-29T22:40:14;2.45;;;1.10;;
40588;SDS011;26297;49.450;6.640;2023-03-29T22:43:18;2.88;;;1.35;;
40588;SDS011;26297;49.450;6.640;2023-03-29T22:46:23;4.22;;;1.50;;
40588;SDS011;26297;49.450;6.640;2023-03-29T22:49:27;5.10;;;1.73;;
40588;SDS011;26297;49.450;6.640;2023-03-29T22:52:31;3.40;;;1.25;;
40588;SDS011;26297;49.450;6.640;2023-03-29T22:55:34;2.70;;;1.30;;
40588;SDS011;26297;49.450;6.640;2023-03-29T22:58:39;1.38;;;1.10;;
40588;SDS011;26297;49.450;6.640;2023-03-29T23:01:42;2.53;;;1.25;;
40588;SDS011;26297;49.450;6.640;2023-03-29T23:04:45;1.98;;;1.13;;
40588;SDS011;26297;49.450;6.640;2023-03-29T23:07:49;2.72;;;1.50;;
40588;SDS011;26297;49.450;6.640;2023-03-29T23:10:53;2.33;;;1.27;;
40588;SDS011;26297;49.450;6.640;2023-03-29T23:13:56;3.70;;;1.17;;
40588;SDS011;26297;49.450;6.640;2023-03-29T23:17:00;3.60;;;1.33;;
40588;SDS011;26297;49.450;6.640;2023-03-29T23:20:04;5.50;;;1.70;;
40588;SDS011;26297;49.450;6.640;2023-03-29T23:23:08;8.82;;;1.45;;
40588;SDS011;26297;49.450;6.640;2023-03-29T23:26:11;4.25;;;1.67;;
40588;SDS011;26297;49.450;6.640;2023-03-29T23:29:14;4.07;;;2.17;;
40588;SDS011;26297;49.450;6.640;2023-03-29T23:32:18;4.22;;;1.80;;
40588;SDS011;26297;49.450;6.640;2023-03-29T23:35:21;4.05;;;1.95;;
40588;SDS011;26297;49.450;6.640;2023-03-29T23:38:25;3.90;;;2.03;;
40588;SDS011;26297;49.450;6.640;2023-03-29T23:41:29;2.88;;;1.73;;
40588;SDS011;26297;49.450;6.640;2023-03-29T23:44:32;3.55;;;1.77;;
40588;SDS011;26297;49.450;6.640;2023-03-29T23:47:36;4.75;;;1.75;;
40588;SDS011;26297;49.450;6.640;2023-03-29T23:50:38;5.30;;;1.77;;
40588;SDS011;26297;49.450;6.640;2023-03-29T23:53:42;5.43;;;1.90;;
40588;SDS011;26297;49.450;6.640;2023-03-29T23:56:46;4.05;;;1.58;;
40588;SDS011;26297;49.450;6.640;2023-03-29T23:59:49;4.30;;;1.95;;
